sensor_id;sensor_type;location;lat;lon;timestamp;temperature;humidity
21255;DHT22;10785;50.674;17.954;2024-03-25T00:00:17;3.90;99.90
21255;DHT22;10785;50.674;17.954;2024-03-25T00:02:48;3.90;99.90
21255;DHT22;10785;50.674;17.954;2024-03-25T00:05:22;3.90;99.90
21255;DHT22;10785;50.674;17.954;2024-03-25T00:07:52;3.80;99.90
21255;DHT22;10785;50.674;17.954;2024-03-25T00:10:19;3.90;99.90
21255;DHT22;10785;50.674;17.954;2024-03-25T00:12:47;3.90;99.90
21255;DHT22;10785;50.674;17.954;2024-03-25T00:15:19;3.90;99.90
21255;DHT22;10785;50.674;17.954;2024-03-25T00:17:48;3.90;99.90
21255;DHT22;10785;50.674;17.954;2024-03-25T00:20:14;3.90;99.90
21255;DHT22;10785;50.674;17.954;2024-03-25T00:22:42;3.80;99.90
21255;DHT22;10785;50.674;17.954;2024-03-25T00:25:09;3.70;99.90
21255;DHT22;10785;50.674;17.954;2024-03-25T00:27:36;3.70;99.90
21255;DHT22;10785;50.674;17.954;2024-03-25T00:30:04;3.70;99.90
21255;DHT22;10785;50.674;17.954;2024-03-25T00:32:34;3.90;1.00
21255;DHT22;10785;50.674;17.954;2024-03-25T00:35:03;3.50;99.90
21255;DHT22;10785;50.674;17.954;2024-03-25T00:37:31;3.50;1.00
21255;DHT22;10785;50.674;17.954;2024-03-25T00:39:57;3.50;1.00
21255;DHT22;10785;50.674;17.954;2024-03-25T00:42:25;3.30;1.00
21255;DHT22;10785;50.674;17.954;2024-03-25T00:44:51;3.50;1.00
21255;DHT22;10785;50.674;17.954;2024-03-25T00:47:19;3.60;1.00
21255;DHT22;10785;50.674;17.954;2024-03-25T00:49:46;3.60;1.00
21255;DHT22;10785;50.674;17.954;2024-03-25T00:52:14;3.60;1.00
21255;DHT22;10785;50.674;17.954;2024-03-25T00:54:41;4.10;1.00
21255;DHT22;10785;50.674;17.954;2024-03-25T00:57:09;3.90;1.00
21255;DHT22;10785;50.674;17.954;2024-03-25T00:59:38;3.80;1.00
21255;DHT22;10785;50.674;17.954;2024-03-25T01:02:06;3.70;1.00
21255;DHT22;10785;50.674;17.954;2024-03-25T01:04:32;3.80;1.00
21255;DHT22;10785;50.674;17.954;2024-03-25T01:07:00;3.70;1.00
21255;DHT22;10785;50.674;17.954;2024-03-25T01:09:28;3.80;1.00
21255;DHT22;10785;50.674;17.954;2024-03-25T01:11:56;3.70;1.00
21255;DHT22;10785;50.674;17.954;2024-03-25T01:14:22;4.20;1.00
21255;DHT22;10785;50.674;17.954;2024-03-25T01:16:50;3.80;1.00
21255;DHT22;10785;50.674;17.954;2024-03-25T01:19:16;3.80;1.00
21255;DHT22;10785;50.674;17.954;2024-03-25T01:21:44;3.80;1.00
21255;DHT22;10785;50.674;17.954;2024-03-25T01:24:11;3.80;1.00
21255;DHT22;10785;50.674;17.954;2024-03-25T01:26:39;3.60;1.00
21255;DHT22;10785;50.674;17.954;2024-03-25T01:29:06;3.50;1.00
21255;DHT22;10785;50.674;17.954;2024-03-25T01:31:34;3.60;1.00
21255;DHT22;10785;50.674;17.954;2024-03-25T01:34:01;3.50;1.00
21255;DHT22;10785;50.674;17.954;2024-03-25T01:36:28;3.50;1.00
21255;DHT22;10785;50.674;17.954;2024-03-25T01:38:55;3.80;1.00
21255;DHT22;10785;50.674;17.954;2024-03-25T01:41:23;3.50;1.00
21255;DHT22;10785;50.674;17.954;2024-03-25T01:43:51;3.80;1.00
21255;DHT22;10785;50.674;17.954;2024-03-25T01:46:18;3.40;1.00
21255;DHT22;10785;50.674;17.954;2024-03-25T01:48:45;3.50;1.00
21255;DHT22;10785;50.674;17.954;2024-03-25T01:51:17;3.90;1.00
21255;DHT22;10785;50.674;17.954;2024-03-25T01:53:44;3.40;1.00
21255;DHT22;10785;50.674;17.954;2024-03-25T01:56:14;3.30;1.00
21255;DHT22;10785;50.674;17.954;2024-03-25T01:58:41;3.30;1.00
21255;DHT22;10785;50.674;17.954;2024-03-25T02:01:11;3.30;1.00
21255;DHT22;10785;50.674;17.954;2024-03-25T02:03:41;3.40;1.00
21255;DHT22;10785;50.674;17.954;2024-03-25T02:06:12;3.30;1.00
21255;DHT22;10785;50.674;17.954;2024-03-25T02:08:40;3.40;1.00
21255;DHT22;10785;50.674;17.954;2024-03-25T02:11:08;3.40;1.00
21255;DHT22;10785;50.674;17.954;2024-03-25T02:13:35;3.40;4.00
21255;DHT22;10785;50.674;17.954;2024-03-25T02:16:04;3.50;1.00
21255;DHT22;10785;50.674;17.954;2024-03-25T02:18:52;3.60;1.00
21255;DHT22;10785;50.674;17.954;2024-03-25T02:21:20;3.40;1.00
21255;DHT22;10785;50.674;17.954;2024-03-25T02:23:47;3.70;1.00
21255;DHT22;10785;50.674;17.954;2024-03-25T02:26:17;3.70;1.00
21255;DHT22;10785;50.674;17.954;2024-03-25T02:28:44;3.80;1.00
21255;DHT22;10785;50.674;17.954;2024-03-25T02:31:11;3.80;1.00
21255;DHT22;10785;50.674;17.954;2024-03-25T02:33:38;3.90;1.00
21255;DHT22;10785;50.674;17.954;2024-03-25T02:36:06;3.90;1.00
21255;DHT22;10785;50.674;17.954;2024-03-25T02:38:33;3.90;1.00
21255;DHT22;10785;50.674;17.954;2024-03-25T02:41:00;3.80;1.00
21255;DHT22;10785;50.674;17.954;2024-03-25T02:43:30;4.30;1.00
21255;DHT22;10785;50.674;17.954;2024-03-25T02:45:57;3.90;1.00
21255;DHT22;10785;50.674;17.954;2024-03-25T02:48:24;3.90;99.90
21255;DHT22;10785;50.674;17.954;2024-03-25T02:50:52;3.90;1.00
21255;DHT22;10785;50.674;17.954;2024-03-25T02:53:18;3.90;99.90
21255;DHT22;10785;50.674;17.954;2024-03-25T02:55:46;4.00;99.90
21255;DHT22;10785;50.674;17.954;2024-03-25T02:58:13;4.00;1.00
21255;DHT22;10785;50.674;17.954;2024-03-25T03:00:41;3.90;1.00
21255;DHT22;10785;50.674;17.954;2024-03-25T03:03:09;4.00;99.90
21255;DHT22;10785;50.674;17.954;2024-03-25T03:05:35;4.00;1.00
21255;DHT22;10785;50.674;17.954;2024-03-25T03:08:03;4.00;99.90
21255;DHT22;10785;50.674;17.954;2024-03-25T03:10:30;4.00;1.00
21255;DHT22;10785;50.674;17.954;2024-03-25T03:12:58;4.00;1.00
21255;DHT22;10785;50.674;17.954;2024-03-25T03:15:25;4.00;99.90
21255;DHT22;10785;50.674;17.954;2024-03-25T03:17:54;4.00;1.00
21255;DHT22;10785;50.674;17.954;2024-03-25T03:20:21;4.00;1.00
21255;DHT22;10785;50.674;17.954;2024-03-25T03:22:48;4.00;99.90
21255;DHT22;10785;50.674;17.954;2024-03-25T03:25:15;4.10;1.00
21255;DHT22;10785;50.674;17.954;2024-03-25T03:27:44;4.10;1.00
21255;DHT22;10785;50.674;17.954;2024-03-25T03:30:11;4.00;99.90
21255;DHT22;10785;50.674;17.954;2024-03-25T03:32:39;4.00;1.00
21255;DHT22;10785;50.674;17.954;2024-03-25T03:35:07;4.00;1.00
21255;DHT22;10785;50.674;17.954;2024-03-25T03:37:41;4.00;1.00
21255;DHT22;10785;50.674;17.954;2024-03-25T03:40:09;5.90;1.00
21255;DHT22;10785;50.674;17.954;2024-03-25T03:42:37;4.00;99.90
21255;DHT22;10785;50.674;17.954;2024-03-25T03:45:05;4.20;99.90
21255;DHT22;10785;50.674;17.954;2024-03-25T03:47:32;4.00;1.00
21255;DHT22;10785;50.674;17.954;2024-03-25T03:49:59;3.90;1.00
21255;DHT22;10785;50.674;17.954;2024-03-25T03:52:28;3.90;1.00
21255;DHT22;10785;50.674;17.954;2024-03-25T03:54:54;3.90;58.80
21255;DHT22;10785;50.674;17.954;2024-03-25T03:57:22;3.80;99.90
21255;DHT22;10785;50.674;17.954;2024-03-25T03:59:49;3.90;99.90
21255;DHT22;10785;50.674;17.954;2024-03-25T04:02:16;5.10;99.90
21255;DHT22;10785;50.674;17.954;2024-03-25T04:04:43;3.90;99.90
21255;DHT22;10785;50.674;17.954;2024-03-25T04:07:10;4.00;99.90
21255;DHT22;10785;50.674;17.954;2024-03-25T04:09:38;4.20;1.00
21255;DHT22;10785;50.674;17.954;2024-03-25T04:12:06;3.90;1.00
21255;DHT22;10785;50.674;17.954;2024-03-25T04:14:33;3.90;99.90
21255;DHT22;10785;50.674;17.954;2024-03-25T04:17:00;3.90;99.90
21255;DHT22;10785;50.674;17.954;2024-03-25T04:19:27;3.90;99.90
21255;DHT22;10785;50.674;17.954;2024-03-25T04:21:55;3.80;1.00
21255;DHT22;10785;50.674;17.954;2024-03-25T04:24:28;3.90;99.90
21255;DHT22;10785;50.674;17.954;2024-03-25T04:26:56;3.90;1.00
21255;DHT22;10785;50.674;17.954;2024-03-25T04:29:23;3.80;99.90
21255;DHT22;10785;50.674;17.954;2024-03-25T04:31:51;4.00;99.90
21255;DHT22;10785;50.674;17.954;2024-03-25T04:34:17;5.90;99.90
21255;DHT22;10785;50.674;17.954;2024-03-25T04:36:47;4.00;99.90
21255;DHT22;10785;50.674;17.954;2024-03-25T04:39:13;4.00;99.90
21255;DHT22;10785;50.674;17.954;2024-03-25T04:41:40;4.00;99.90
21255;DHT22;10785;50.674;17.954;2024-03-25T04:44:08;4.00;1.00
21255;DHT22;10785;50.674;17.954;2024-03-25T04:46:36;4.00;1.00
21255;DHT22;10785;50.674;17.954;2024-03-25T04:49:03;4.20;1.00
21255;DHT22;10785;50.674;17.954;2024-03-25T04:51:40;4.10;1.00
21255;DHT22;10785;50.674;17.954;2024-03-25T04:54:07;2.40;1.00
21255;DHT22;10785;50.674;17.954;2024-03-25T04:56:34;4.10;1.00
21255;DHT22;10785;50.674;17.954;2024-03-25T04:59:00;4.70;1.00
21255;DHT22;10785;50.674;17.954;2024-03-25T05:01:29;4.10;1.00
21255;DHT22;10785;50.674;17.954;2024-03-25T05:03:55;4.30;1.00
21255;DHT22;10785;50.674;17.954;2024-03-25T05:06:22;4.10;1.00
21255;DHT22;10785;50.674;17.954;2024-03-25T05:08:49;4.10;1.00
21255;DHT22;10785;50.674;17.954;2024-03-25T05:11:16;4.10;1.00
21255;DHT22;10785;50.674;17.954;2024-03-25T05:13:43;4.60;1.00
21255;DHT22;10785;50.674;17.954;2024-03-25T05:16:09;4.30;1.00
21255;DHT22;10785;50.674;17.954;2024-03-25T05:18:37;4.30;1.00
21255;DHT22;10785;50.674;17.954;2024-03-25T05:21:04;4.40;1.00
21255;DHT22;10785;50.674;17.954;2024-03-25T05:23:31;4.60;1.00
21255;DHT22;10785;50.674;17.954;2024-03-25T05:25:57;4.90;1.00
21255;DHT22;10785;50.674;17.954;2024-03-25T05:28:24;4.60;1.00
21255;DHT22;10785;50.674;17.954;2024-03-25T05:30:50;4.70;1.00
21255;DHT22;10785;50.674;17.954;2024-03-25T05:33:17;4.70;1.00
21255;DHT22;10785;50.674;17.954;2024-03-25T05:35:45;4.70;1.00
21255;DHT22;10785;50.674;17.954;2024-03-25T05:38:12;4.80;1.00
21255;DHT22;10785;50.674;17.954;2024-03-25T05:40:38;4.90;99.90
21255;DHT22;10785;50.674;17.954;2024-03-25T05:43:05;5.90;57.30
21255;DHT22;10785;50.674;17.954;2024-03-25T05:45:31;4.90;1.00
21255;DHT22;10785;50.674;17.954;2024-03-25T05:47:58;5.10;99.90
21255;DHT22;10785;50.674;17.954;2024-03-25T05:50:25;5.10;1.00
21255;DHT22;10785;50.674;17.954;2024-03-25T05:52:53;5.30;99.90
21255;DHT22;10785;50.674;17.954;2024-03-25T05:55:20;5.30;99.90
21255;DHT22;10785;50.674;17.954;2024-03-25T05:57:46;5.20;1.00
21255;DHT22;10785;50.674;17.954;2024-03-25T06:00:14;5.30;1.00
21255;DHT22;10785;50.674;17.954;2024-03-25T06:02:40;5.40;1.00
21255;DHT22;10785;50.674;17.954;2024-03-25T06:05:07;5.70;23.50
21255;DHT22;10785;50.674;17.954;2024-03-25T06:07:37;5.50;1.00
21255;DHT22;10785;50.674;17.954;2024-03-25T06:10:06;5.60;1.00
21255;DHT22;10785;50.674;17.954;2024-03-25T06:12:32;5.60;1.00
21255;DHT22;10785;50.674;17.954;2024-03-25T06:14:59;5.70;99.90
21255;DHT22;10785;50.674;17.954;2024-03-25T06:17:26;5.80;99.90
21255;DHT22;10785;50.674;17.954;2024-03-25T06:19:52;5.90;1.00
21255;DHT22;10785;50.674;17.954;2024-03-25T06:22:19;6.00;1.00
21255;DHT22;10785;50.674;17.954;2024-03-25T06:24:45;6.00;1.00
21255;DHT22;10785;50.674;17.954;2024-03-25T06:27:14;6.10;99.90
21255;DHT22;10785;50.674;17.954;2024-03-25T06:29:41;6.30;99.90
21255;DHT22;10785;50.674;17.954;2024-03-25T06:32:08;6.40;1.00
21255;DHT22;10785;50.674;17.954;2024-03-25T06:34:53;6.50;1.00
21255;DHT22;10785;50.674;17.954;2024-03-25T06:37:19;6.60;1.00
21255;DHT22;10785;50.674;17.954;2024-03-25T06:39:46;6.60;99.90
21255;DHT22;10785;50.674;17.954;2024-03-25T06:42:17;6.70;99.90
21255;DHT22;10785;50.674;17.954;2024-03-25T06:44:43;6.90;99.90
21255;DHT22;10785;50.674;17.954;2024-03-25T06:47:10;6.90;99.90
21255;DHT22;10785;50.674;17.954;2024-03-25T06:49:37;7.00;1.00
21255;DHT22;10785;50.674;17.954;2024-03-25T06:52:03;7.00;1.00
21255;DHT22;10785;50.674;17.954;2024-03-25T06:54:32;7.00;1.00
21255;DHT22;10785;50.674;17.954;2024-03-25T06:56:58;7.40;1.00
21255;DHT22;10785;50.674;17.954;2024-03-25T06:59:26;7.00;1.00
21255;DHT22;10785;50.674;17.954;2024-03-25T07:01:53;7.00;1.00
21255;DHT22;10785;50.674;17.954;2024-03-25T07:04:20;7.50;1.00
21255;DHT22;10785;50.674;17.954;2024-03-25T07:06:47;6.90;1.00
21255;DHT22;10785;50.674;17.954;2024-03-25T07:09:13;7.10;1.00
21255;DHT22;10785;50.674;17.954;2024-03-25T07:11:40;7.30;1.00
21255;DHT22;10785;50.674;17.954;2024-03-25T07:14:07;7.40;99.90
21255;DHT22;10785;50.674;17.954;2024-03-25T07:16:35;7.50;99.90
21255;DHT22;10785;50.674;17.954;2024-03-25T07:19:01;7.80;99.90
21255;DHT22;10785;50.674;17.954;2024-03-25T07:21:28;8.40;99.90
21255;DHT22;10785;50.674;17.954;2024-03-25T07:23:55;8.20;1.00
21255;DHT22;10785;50.674;17.954;2024-03-25T07:26:22;8.30;1.00
21255;DHT22;10785;50.674;17.954;2024-03-25T07:28:48;8.10;1.00
21255;DHT22;10785;50.674;17.954;2024-03-25T07:31:15;8.50;1.00
21255;DHT22;10785;50.674;17.954;2024-03-25T07:33:43;8.10;1.00
21255;DHT22;10785;50.674;17.954;2024-03-25T07:36:10;7.90;1.00
21255;DHT22;10785;50.674;17.954;2024-03-25T07:38:37;7.80;1.00
21255;DHT22;10785;50.674;17.954;2024-03-25T07:41:04;7.80;1.00
21255;DHT22;10785;50.674;17.954;2024-03-25T07:43:31;7.70;1.00
21255;DHT22;10785;50.674;17.954;2024-03-25T07:45:57;7.60;1.00
21255;DHT22;10785;50.674;17.954;2024-03-25T07:48:24;7.70;1.00
21255;DHT22;10785;50.674;17.954;2024-03-25T07:50:53;7.30;1.00
21255;DHT22;10785;50.674;17.954;2024-03-25T07:53:19;7.20;99.90
21255;DHT22;10785;50.674;17.954;2024-03-25T07:55:46;7.10;99.90
21255;DHT22;10785;50.674;17.954;2024-03-25T07:58:13;7.10;99.90
21255;DHT22;10785;50.674;17.954;2024-03-25T08:00:39;7.20;99.90
21255;DHT22;10785;50.674;17.954;2024-03-25T08:03:06;7.20;99.90
21255;DHT22;10785;50.674;17.954;2024-03-25T08:05:33;7.00;99.90
21255;DHT22;10785;50.674;17.954;2024-03-25T08:08:01;6.80;1.00
21255;DHT22;10785;50.674;17.954;2024-03-25T08:10:27;6.50;1.00
21255;DHT22;10785;50.674;17.954;2024-03-25T08:12:55;6.70;1.00
21255;DHT22;10785;50.674;17.954;2024-03-25T08:15:23;6.70;1.00
21255;DHT22;10785;50.674;17.954;2024-03-25T08:17:49;6.60;1.00
21255;DHT22;10785;50.674;17.954;2024-03-25T08:20:16;6.80;1.00
21255;DHT22;10785;50.674;17.954;2024-03-25T08:22:43;7.20;99.90
21255;DHT22;10785;50.674;17.954;2024-03-25T08:25:11;7.50;99.90
21255;DHT22;10785;50.674;17.954;2024-03-25T08:27:38;8.00;99.90
21255;DHT22;10785;50.674;17.954;2024-03-25T08:30:08;8.00;99.90
21255;DHT22;10785;50.674;17.954;2024-03-25T08:32:35;8.10;99.90
21255;DHT22;10785;50.674;17.954;2024-03-25T08:35:02;8.10;57.60
21255;DHT22;10785;50.674;17.954;2024-03-25T08:37:29;8.10;27.40
21255;DHT22;10785;50.674;17.954;2024-03-25T08:39:56;8.10;9.30
21255;DHT22;10785;50.674;17.954;2024-03-25T08:42:24;8.00;1.00
21255;DHT22;10785;50.674;17.954;2024-03-25T08:44:51;7.90;1.00
21255;DHT22;10785;50.674;17.954;2024-03-25T08:47:18;7.70;25.50
21255;DHT22;10785;50.674;17.954;2024-03-25T08:49:44;7.50;99.90
21255;DHT22;10785;50.674;17.954;2024-03-25T08:52:11;7.40;99.90
21255;DHT22;10785;50.674;17.954;2024-03-25T08:54:38;7.30;99.90
21255;DHT22;10785;50.674;17.954;2024-03-25T08:57:04;7.50;1.00
21255;DHT22;10785;50.674;17.954;2024-03-25T08:59:32;7.10;1.00
21255;DHT22;10785;50.674;17.954;2024-03-25T09:01:59;7.00;1.00
21255;DHT22;10785;50.674;17.954;2024-03-25T09:04:26;6.90;1.00
21255;DHT22;10785;50.674;17.954;2024-03-25T09:06:53;7.20;1.00
21255;DHT22;10785;50.674;17.954;2024-03-25T09:09:19;7.20;1.00
21255;DHT22;10785;50.674;17.954;2024-03-25T09:12:05;7.00;1.00
21255;DHT22;10785;50.674;17.954;2024-03-25T09:14:33;7.10;99.90
21255;DHT22;10785;50.674;17.954;2024-03-25T09:17:00;7.20;99.90
21255;DHT22;10785;50.674;17.954;2024-03-25T09:19:27;7.20;99.90
21255;DHT22;10785;50.674;17.954;2024-03-25T09:21:53;7.10;1.00
21255;DHT22;10785;50.674;17.954;2024-03-25T09:24:20;7.10;1.00
21255;DHT22;10785;50.674;17.954;2024-03-25T09:26:49;7.40;1.00
21255;DHT22;10785;50.674;17.954;2024-03-25T09:29:16;8.10;1.00
21255;DHT22;10785;50.674;17.954;2024-03-25T09:31:44;7.80;99.90
21255;DHT22;10785;50.674;17.954;2024-03-25T09:34:11;8.20;99.90
21255;DHT22;10785;50.674;17.954;2024-03-25T09:36:37;7.90;1.00
21255;DHT22;10785;50.674;17.954;2024-03-25T09:39:04;8.20;99.90
21255;DHT22;10785;50.674;17.954;2024-03-25T09:41:31;7.80;99.90
21255;DHT22;10785;50.674;17.954;2024-03-25T09:44:01;7.90;99.90
21255;DHT22;10785;50.674;17.954;2024-03-25T09:46:29;8.30;71.60
21255;DHT22;10785;50.674;17.954;2024-03-25T09:48:57;7.70;1.00
21255;DHT22;10785;50.674;17.954;2024-03-25T09:51:24;8.10;99.90
21255;DHT22;10785;50.674;17.954;2024-03-25T09:53:51;8.20;42.70
21255;DHT22;10785;50.674;17.954;2024-03-25T09:56:17;8.40;1.00
21255;DHT22;10785;50.674;17.954;2024-03-25T09:58:44;8.80;1.00
21255;DHT22;10785;50.674;17.954;2024-03-25T10:01:11;8.40;1.00
21255;DHT22;10785;50.674;17.954;2024-03-25T10:03:38;8.00;1.00
21255;DHT22;10785;50.674;17.954;2024-03-25T10:06:07;7.70;25.20
21255;DHT22;10785;50.674;17.954;2024-03-25T10:08:33;7.60;99.90
21255;DHT22;10785;50.674;17.954;2024-03-25T10:11:00;7.20;99.90
21255;DHT22;10785;50.674;17.954;2024-03-25T10:13:27;6.50;1.00
21255;DHT22;10785;50.674;17.954;2024-03-25T10:15:55;6.40;1.00
21255;DHT22;10785;50.674;17.954;2024-03-25T10:18:22;6.50;49.20
21255;DHT22;10785;50.674;17.954;2024-03-25T10:20:49;6.60;1.00
21255;DHT22;10785;50.674;17.954;2024-03-25T10:23:20;6.50;1.00
21255;DHT22;10785;50.674;17.954;2024-03-25T10:25:48;7.00;1.00
21255;DHT22;10785;50.674;17.954;2024-03-25T10:28:15;7.10;99.90
21255;DHT22;10785;50.674;17.954;2024-03-25T10:30:42;7.50;99.90
21255;DHT22;10785;50.674;17.954;2024-03-25T10:33:08;8.30;99.90
21255;DHT22;10785;50.674;17.954;2024-03-25T10:35:36;8.10;99.90
21255;DHT22;10785;50.674;17.954;2024-03-25T10:38:04;8.30;99.90
21255;DHT22;10785;50.674;17.954;2024-03-25T10:40:34;8.50;83.90
21255;DHT22;10785;50.674;17.954;2024-03-25T10:43:02;8.80;99.90
21255;DHT22;10785;50.674;17.954;2024-03-25T10:45:34;8.80;1.00
21255;DHT22;10785;50.674;17.954;2024-03-25T10:48:03;8.90;1.00
21255;DHT22;10785;50.674;17.954;2024-03-25T10:50:35;8.60;1.00
21255;DHT22;10785;50.674;17.954;2024-03-25T10:53:02;8.50;1.00
21255;DHT22;10785;50.674;17.954;2024-03-25T10:55:32;8.50;1.00
21255;DHT22;10785;50.674;17.954;2024-03-25T10:58:01;7.20;99.90
21255;DHT22;10785;50.674;17.954;2024-03-25T11:00:29;7.30;99.90
21255;DHT22;10785;50.674;17.954;2024-03-25T11:02:58;7.50;99.90
21255;DHT22;10785;50.674;17.954;2024-03-25T11:05:26;7.10;1.00
21255;DHT22;10785;50.674;17.954;2024-03-25T11:07:53;7.10;1.00
21255;DHT22;10785;50.674;17.954;2024-03-25T11:10:29;7.20;1.00
21255;DHT22;10785;50.674;17.954;2024-03-25T11:12:57;7.40;1.00
21255;DHT22;10785;50.674;17.954;2024-03-25T11:15:24;7.40;99.90
21255;DHT22;10785;50.674;17.954;2024-03-25T11:17:51;7.20;99.90
21255;DHT22;10785;50.674;17.954;2024-03-25T11:20:18;7.60;1.00
21255;DHT22;10785;50.674;17.954;2024-03-25T11:22:48;7.90;99.90
21255;DHT22;10785;50.674;17.954;2024-03-25T11:25:15;8.20;99.90
21255;DHT22;10785;50.674;17.954;2024-03-25T11:27:44;8.20;39.10
21255;DHT22;10785;50.674;17.954;2024-03-25T11:30:14;8.30;37.90
21255;DHT22;10785;50.674;17.954;2024-03-25T11:32:45;8.40;24.60
21255;DHT22;10785;50.674;17.954;2024-03-25T11:35:12;9.10;5.70
21255;DHT22;10785;50.674;17.954;2024-03-25T11:37:41;8.50;1.00
21255;DHT22;10785;50.674;17.954;2024-03-25T11:40:09;8.80;1.00
21255;DHT22;10785;50.674;17.954;2024-03-25T11:42:38;9.60;89.80
21255;DHT22;10785;50.674;17.954;2024-03-25T11:45:06;9.50;1.00
21255;DHT22;10785;50.674;17.954;2024-03-25T11:47:34;9.80;1.00
21255;DHT22;10785;50.674;17.954;2024-03-25T11:50:07;9.80;1.00
21255;DHT22;10785;50.674;17.954;2024-03-25T11:52:34;9.10;1.00
21255;DHT22;10785;50.674;17.954;2024-03-25T11:55:01;8.10;95.50
21255;DHT22;10785;50.674;17.954;2024-03-25T11:57:38;7.50;99.90
21255;DHT22;10785;50.674;17.954;2024-03-25T12:00:08;7.50;1.00
21255;DHT22;10785;50.674;17.954;2024-03-25T12:02:45;7.00;1.00
21255;DHT22;10785;50.674;17.954;2024-03-25T12:05:16;7.10;1.00
21255;DHT22;10785;50.674;17.954;2024-03-25T12:07:42;7.20;1.00
21255;DHT22;10785;50.674;17.954;2024-03-25T12:10:09;7.20;1.00
21255;DHT22;10785;50.674;17.954;2024-03-25T12:12:55;7.20;1.00
21255;DHT22;10785;50.674;17.954;2024-03-25T12:15:23;7.10;1.00
21255;DHT22;10785;50.674;17.954;2024-03-25T12:17:51;7.70;1.00
21255;DHT22;10785;50.674;17.954;2024-03-25T12:20:19;7.40;1.00
21255;DHT22;10785;50.674;17.954;2024-03-25T12:22:49;7.40;99.90
21255;DHT22;10785;50.674;17.954;2024-03-25T12:25:15;7.40;1.00
21255;DHT22;10785;50.674;17.954;2024-03-25T12:27:46;7.40;1.00
21255;DHT22;10785;50.674;17.954;2024-03-25T12:30:13;7.50;99.90
21255;DHT22;10785;50.674;17.954;2024-03-25T12:32:40;7.60;99.90
21255;DHT22;10785;50.674;17.954;2024-03-25T12:35:11;7.70;99.90
21255;DHT22;10785;50.674;17.954;2024-03-25T12:37:38;8.20;97.60
21255;DHT22;10785;50.674;17.954;2024-03-25T12:40:07;8.60;1.00
21255;DHT22;10785;50.674;17.954;2024-03-25T12:42:34;8.90;1.00
21255;DHT22;10785;50.674;17.954;2024-03-25T12:45:01;9.20;1.00
21255;DHT22;10785;50.674;17.954;2024-03-25T12:47:30;9.40;1.00
21255;DHT22;10785;50.674;17.954;2024-03-25T12:49:57;9.90;1.00
21255;DHT22;10785;50.674;17.954;2024-03-25T12:52:26;9.80;1.00
21255;DHT22;10785;50.674;17.954;2024-03-25T12:54:52;9.00;1.00
21255;DHT22;10785;50.674;17.954;2024-03-25T12:57:19;8.60;1.00
21255;DHT22;10785;50.674;17.954;2024-03-25T12:59:46;8.30;1.00
21255;DHT22;10785;50.674;17.954;2024-03-25T13:02:12;8.30;1.00
21255;DHT22;10785;50.674;17.954;2024-03-25T13:04:41;8.40;1.00
21255;DHT22;10785;50.674;17.954;2024-03-25T13:07:08;8.60;1.00
21255;DHT22;10785;50.674;17.954;2024-03-25T13:09:36;8.80;1.00
21255;DHT22;10785;50.674;17.954;2024-03-25T13:12:03;8.90;1.00
21255;DHT22;10785;50.674;17.954;2024-03-25T13:14:30;8.70;1.00
21255;DHT22;10785;50.674;17.954;2024-03-25T13:16:57;8.50;1.00
21255;DHT22;10785;50.674;17.954;2024-03-25T13:19:24;8.30;1.00
21255;DHT22;10785;50.674;17.954;2024-03-25T13:21:51;8.40;1.00
21255;DHT22;10785;50.674;17.954;2024-03-25T13:24:17;8.50;1.00
21255;DHT22;10785;50.674;17.954;2024-03-25T13:26:45;8.40;1.00
21255;DHT22;10785;50.674;17.954;2024-03-25T13:29:12;8.60;1.00
21255;DHT22;10785;50.674;17.954;2024-03-25T13:31:42;8.30;1.00
21255;DHT22;10785;50.674;17.954;2024-03-25T13:34:08;8.50;1.00
21255;DHT22;10785;50.674;17.954;2024-03-25T13:36:37;8.60;1.00
21255;DHT22;10785;50.674;17.954;2024-03-25T13:39:16;8.60;1.00
21255;DHT22;10785;50.674;17.954;2024-03-25T13:41:42;8.40;1.00
21255;DHT22;10785;50.674;17.954;2024-03-25T13:44:10;8.50;1.00
21255;DHT22;10785;50.674;17.954;2024-03-25T13:46:37;8.80;1.00
21255;DHT22;10785;50.674;17.954;2024-03-25T13:49:04;9.00;1.00
21255;DHT22;10785;50.674;17.954;2024-03-25T13:51:30;8.90;1.00
21255;DHT22;10785;50.674;17.954;2024-03-25T13:53:57;8.70;1.00
21255;DHT22;10785;50.674;17.954;2024-03-25T13:56:24;11.10;1.00
21255;DHT22;10785;50.674;17.954;2024-03-25T13:58:51;8.90;1.00
21255;DHT22;10785;50.674;17.954;2024-03-25T14:01:22;8.90;1.00
21255;DHT22;10785;50.674;17.954;2024-03-25T14:03:48;8.80;1.00
21255;DHT22;10785;50.674;17.954;2024-03-25T14:09:10;8.50;1.00
21255;DHT22;10785;50.674;17.954;2024-03-25T14:11:36;8.50;1.00
21255;DHT22;10785;50.674;17.954;2024-03-25T14:14:03;8.50;1.00
21255;DHT22;10785;50.674;17.954;2024-03-25T14:16:31;8.50;1.00
21255;DHT22;10785;50.674;17.954;2024-03-25T14:19:04;8.50;1.00
21255;DHT22;10785;50.674;17.954;2024-03-25T14:21:31;8.60;1.00
21255;DHT22;10785;50.674;17.954;2024-03-25T14:23:57;8.50;1.00
21255;DHT22;10785;50.674;17.954;2024-03-25T14:26:24;8.60;1.00
21255;DHT22;10785;50.674;17.954;2024-03-25T14:28:51;8.40;1.00
21255;DHT22;10785;50.674;17.954;2024-03-25T14:31:18;8.30;1.00
21255;DHT22;10785;50.674;17.954;2024-03-25T14:33:46;8.10;1.00
21255;DHT22;10785;50.674;17.954;2024-03-25T14:36:12;8.20;1.00
21255;DHT22;10785;50.674;17.954;2024-03-25T14:38:39;8.10;1.00
21255;DHT22;10785;50.674;17.954;2024-03-25T14:41:06;8.20;1.00
21255;DHT22;10785;50.674;17.954;2024-03-25T14:43:33;8.30;1.00
21255;DHT22;10785;50.674;17.954;2024-03-25T14:45:59;8.30;1.00
21255;DHT22;10785;50.674;17.954;2024-03-25T14:48:26;8.50;1.00
21255;DHT22;10785;50.674;17.954;2024-03-25T14:50:54;8.60;1.00
21255;DHT22;10785;50.674;17.954;2024-03-25T14:53:21;8.70;1.00
21255;DHT22;10785;50.674;17.954;2024-03-25T14:55:48;8.60;1.00
21255;DHT22;10785;50.674;17.954;2024-03-25T14:58:15;8.50;1.00
21255;DHT22;10785;50.674;17.954;2024-03-25T15:00:41;8.50;1.00
21255;DHT22;10785;50.674;17.954;2024-03-25T15:03:09;8.50;1.00
21255;DHT22;10785;50.674;17.954;2024-03-25T15:05:36;8.40;1.00
21255;DHT22;10785;50.674;17.954;2024-03-25T15:08:05;8.30;1.00
21255;DHT22;10785;50.674;17.954;2024-03-25T15:10:33;8.30;1.00
21255;DHT22;10785;50.674;17.954;2024-03-25T15:13:00;8.30;1.00
21255;DHT22;10785;50.674;17.954;2024-03-25T15:15:28;8.30;1.00
21255;DHT22;10785;50.674;17.954;2024-03-25T15:17:55;8.30;1.00
21255;DHT22;10785;50.674;17.954;2024-03-25T15:20:22;8.20;1.00
21255;DHT22;10785;50.674;17.954;2024-03-25T15:22:49;8.10;1.00
21255;DHT22;10785;50.674;17.954;2024-03-25T15:25:17;8.10;1.00
21255;DHT22;10785;50.674;17.954;2024-03-25T15:27:45;8.20;1.00
21255;DHT22;10785;50.674;17.954;2024-03-25T15:30:12;8.20;1.00
21255;DHT22;10785;50.674;17.954;2024-03-25T15:32:39;8.20;1.00
21255;DHT22;10785;50.674;17.954;2024-03-25T15:35:06;8.30;1.00
21255;DHT22;10785;50.674;17.954;2024-03-25T15:37:33;8.30;1.00
21255;DHT22;10785;50.674;17.954;2024-03-25T15:40:00;8.40;1.00
21255;DHT22;10785;50.674;17.954;2024-03-25T15:42:28;9.30;1.00
21255;DHT22;10785;50.674;17.954;2024-03-25T15:44:55;8.30;1.00
21255;DHT22;10785;50.674;17.954;2024-03-25T15:47:21;8.30;1.00